createdAt,value
2018-09-27T12:05:07.693Z,14.30
2018-09-27T12:07:36.171Z,19.10
2018-09-27T12:10:04.556Z,19.00
2018-09-27T12:12:33.065Z,19.00
2018-09-27T12:15:01.475Z,19.00
2018-09-27T12:17:29.939Z,19.10
2018-09-27T12:19:58.441Z,19.10
2018-09-27T12:22:26.849Z,19.20
2018-09-27T12:24:55.354Z,19.10
2018-09-27T12:27:23.849Z,19.20
2018-09-27T12:29:52.261Z,19.20
2018-09-27T12:32:20.692Z,19.20
2018-09-27T12:34:49.351Z,19.10
2018-09-27T12:37:17.759Z,19.10
2018-09-27T12:39:46.324Z,19.10
2018-09-27T12:42:14.796Z,19.20
2018-09-27T12:44:43.060Z,19.20
2018-09-27T12:47:11.507Z,19.20
2018-09-27T12:49:39.904Z,19.20
2018-09-27T12:52:08.648Z,19.30
2018-09-27T12:54:36.751Z,19.30
2018-09-27T12:57:05.484Z,19.30
2018-09-27T12:59:33.896Z,19.30
2018-09-27T13:02:02.439Z,19.40
2018-09-27T13:04:30.732Z,19.40
2018-09-27T13:06:59.228Z,19.50
2018-09-27T13:09:27.939Z,19.50
2018-09-27T13:11:56.290Z,19.50
2018-09-27T13:14:25.331Z,19.60
2018-09-27T13:16:53.753Z,19.60
2018-09-27T13:19:22.327Z,19.60
2018-09-27T13:21:50.755Z,19.60
2018-09-27T13:24:19.184Z,19.60
2018-09-27T13:26:47.704Z,19.60
2018-09-27T13:29:16.163Z,19.50
2018-09-27T13:31:44.595Z,19.60
2018-09-27T13:34:13.031Z,19.50
2018-09-27T13:36:41.518Z,19.50
2018-09-27T13:39:10.592Z,19.50
2018-09-27T13:41:40.099Z,19.60
2018-09-27T13:44:08.904Z,19.60
2018-09-27T13:46:37.654Z,19.60
2018-09-27T13:49:06.293Z,19.60
2018-09-27T13:51:34.756Z,19.50
2018-09-27T13:54:03.180Z,19.50
2018-09-27T13:56:31.613Z,19.40
2018-09-27T13:59:00.040Z,19.40
2018-09-27T14:01:28.512Z,19.50
2018-09-27T14:03:57.362Z,19.50
2018-09-27T14:06:25.830Z,19.50
2018-09-27T14:08:54.284Z,19.50
2018-09-27T14:11:22.769Z,19.50
2018-09-27T14:13:51.200Z,19.50
2018-09-27T14:16:19.731Z,19.50
2018-09-27T14:18:48.291Z,19.50
2018-09-27T14:21:16.814Z,19.40
2018-09-27T14:23:45.265Z,19.40
2018-09-27T14:26:13.692Z,19.30
2018-09-27T14:28:42.132Z,19.30
2018-09-27T14:31:11.128Z,19.30
2018-09-27T14:33:39.669Z,19.30
2018-09-27T14:36:08.111Z,19.30
2018-09-27T14:38:36.564Z,19.20
2018-09-27T14:41:05.111Z,19.30
2018-09-27T14:43:33.596Z,19.30
2018-09-27T14:46:02.033Z,19.20
2018-09-27T14:48:30.720Z,19.20
2018-09-27T14:50:59.712Z,19.30
2018-09-27T14:53:28.174Z,19.20
2018-09-27T14:55:56.571Z,19.10
2018-09-27T14:58:25.321Z,19.10
2018-09-27T15:00:53.804Z,19.00
2018-09-27T15:03:22.523Z,19.10
2018-09-27T15:05:51.747Z,19.10
2018-09-27T15:08:20.216Z,19.10
2018-09-27T15:10:48.775Z,19.10
2018-09-27T15:13:18.120Z,19.00
2018-09-27T15:15:46.599Z,19.00
2018-09-27T15:18:15.029Z,18.90
2018-09-27T15:20:43.536Z,18.90
2018-09-27T15:23:12.584Z,18.80
2018-09-27T15:25:41.078Z,18.80
2018-09-27T15:28:09.603Z,18.70
2018-09-27T15:30:38.071Z,18.70
2018-09-27T15:33:06.616Z,18.60
2018-09-27T15:35:35.096Z,18.70
2018-09-27T15:38:03.620Z,18.60
2018-09-27T15:40:32.084Z,18.50
2018-09-27T15:43:00.549Z,18.50
2018-09-27T15:45:29.012Z,18.60
2018-09-27T15:47:57.431Z,18.60
2018-09-27T15:50:25.908Z,18.60
2018-09-27T15:52:54.463Z,18.60
2018-09-27T15:55:22.997Z,18.50
2018-09-27T15:57:51.420Z,18.50
